sensor_id;sensor_type;location;lat;lon;timestamp;temperature;humidity
78886;DHT22;68269;52.514;5.722;2023-04-24T00:01:46;12.30;68.00
78886;DHT22;68269;52.514;5.722;2023-04-24T00:04:19;12.40;68.00
78886;DHT22;68269;52.514;5.722;2023-04-24T00:06:48;12.30;68.00
78886;DHT22;68269;52.514;5.722;2023-04-24T00:09:20;12.30;68.00
78886;DHT22;68269;52.514;5.722;2023-04-24T00:11:49;12.30;68.00
78886;DHT22;68269;52.514;5.722;2023-04-24T00:14:18;12.30;68.00
78886;DHT22;68269;52.514;5.722;2023-04-24T00:16:48;12.30;68.10
78886;DHT22;68269;52.514;5.722;2023-04-24T00:19:20;12.30;68.10
78886;DHT22;68269;52.514;5.722;2023-04-24T00:21:50;12.20;68.10
78886;DHT22;68269;52.514;5.722;2023-04-24T00:24:20;12.20;68.20
78886;DHT22;68269;52.514;5.722;2023-04-24T00:26:49;12.20;68.20
78886;DHT22;68269;52.514;5.722;2023-04-24T00:29:19;12.30;68.20
78886;DHT22;68269;52.514;5.722;2023-04-24T00:31:48;12.20;68.20
78886;DHT22;68269;52.514;5.722;2023-04-24T00:34:20;12.30;68.20
78886;DHT22;68269;52.514;5.722;2023-04-24T00:36:49;12.30;68.20
78886;DHT22;68269;52.514;5.722;2023-04-24T00:39:19;12.30;68.20
78886;DHT22;68269;52.514;5.722;2023-04-24T00:41:49;12.30;68.20
78886;DHT22;68269;52.514;5.722;2023-04-24T00:44:19;12.20;68.20
78886;DHT22;68269;52.514;5.722;2023-04-24T00:46:49;12.30;68.20
78886;DHT22;68269;52.514;5.722;2023-04-24T00:49:24;12.20;68.20
78886;DHT22;68269;52.514;5.722;2023-04-24T00:51:53;12.20;68.30
78886;DHT22;68269;52.514;5.722;2023-04-24T00:54:23;12.20;68.20
78886;DHT22;68269;52.514;5.722;2023-04-24T00:56:52;12.20;68.30
78886;DHT22;68269;52.514;5.722;2023-04-24T00:59:23;12.20;68.30
78886;DHT22;68269;52.514;5.722;2023-04-24T01:01:53;12.20;68.30
78886;DHT22;68269;52.514;5.722;2023-04-24T01:04:25;12.10;68.30
78886;DHT22;68269;52.514;5.722;2023-04-24T01:06:55;12.10;68.30
78886;DHT22;68269;52.514;5.722;2023-04-24T01:09:26;12.00;68.30
78886;DHT22;68269;52.514;5.722;2023-04-24T01:11:58;12.00;68.30
78886;DHT22;68269;52.514;5.722;2023-04-24T01:14:27;12.00;68.30
78886;DHT22;68269;52.514;5.722;2023-04-24T01:16:57;12.00;68.30
78886;DHT22;68269;52.514;5.722;2023-04-24T01:19:30;11.90;68.30
78886;DHT22;68269;52.514;5.722;2023-04-24T01:22:02;11.90;68.30
78886;DHT22;68269;52.514;5.722;2023-04-24T01:24:34;11.90;68.40
78886;DHT22;68269;52.514;5.722;2023-04-24T01:27:05;11.90;68.40
78886;DHT22;68269;52.514;5.722;2023-04-24T01:29:35;11.90;68.30
78886;DHT22;68269;52.514;5.722;2023-04-24T01:32:05;11.90;68.30
78886;DHT22;68269;52.514;5.722;2023-04-24T01:34:34;11.80;68.30
78886;DHT22;68269;52.514;5.722;2023-04-24T01:37:04;11.80;68.40
78886;DHT22;68269;52.514;5.722;2023-04-24T01:39:36;11.80;68.30
78886;DHT22;68269;52.514;5.722;2023-04-24T01:42:05;11.90;68.30
78886;DHT22;68269;52.514;5.722;2023-04-24T01:44:36;11.90;68.20
78886;DHT22;68269;52.514;5.722;2023-04-24T01:47:05;11.80;68.30
78886;DHT22;68269;52.514;5.722;2023-04-24T01:49:35;11.80;68.30
78886;DHT22;68269;52.514;5.722;2023-04-24T01:52:05;11.80;68.30
78886;DHT22;68269;52.514;5.722;2023-04-24T01:54:37;11.70;68.30
78886;DHT22;68269;52.514;5.722;2023-04-24T01:57:07;11.70;68.40
78886;DHT22;68269;52.514;5.722;2023-04-24T01:59:36;11.70;68.50
78886;DHT22;68269;52.514;5.722;2023-04-24T02:02:06;11.70;68.50
78886;DHT22;68269;52.514;5.722;2023-04-24T02:04:35;11.70;68.50
78886;DHT22;68269;52.514;5.722;2023-04-24T02:07:04;11.70;68.50
78886;DHT22;68269;52.514;5.722;2023-04-24T02:09:36;11.70;68.60
78886;DHT22;68269;52.514;5.722;2023-04-24T02:12:06;11.50;68.60
78886;DHT22;68269;52.514;5.722;2023-04-24T02:14:35;11.50;68.70
78886;DHT22;68269;52.514;5.722;2023-04-24T02:17:04;11.50;68.70
78886;DHT22;68269;52.514;5.722;2023-04-24T02:19:36;11.40;68.70
78886;DHT22;68269;52.514;5.722;2023-04-24T02:22:06;11.30;68.80
78886;DHT22;68269;52.514;5.722;2023-04-24T02:24:39;11.20;68.90
78886;DHT22;68269;52.514;5.722;2023-04-24T02:27:08;11.20;68.90
78886;DHT22;68269;52.514;5.722;2023-04-24T02:29:37;11.10;68.90
78886;DHT22;68269;52.514;5.722;2023-04-24T02:32:07;11.10;68.90
78886;DHT22;68269;52.514;5.722;2023-04-24T02:34:38;11.10;68.90
78886;DHT22;68269;52.514;5.722;2023-04-24T02:37:07;11.10;68.90
78886;DHT22;68269;52.514;5.722;2023-04-24T02:39:39;11.10;68.90
78886;DHT22;68269;52.514;5.722;2023-04-24T02:42:08;11.20;68.90
78886;DHT22;68269;52.514;5.722;2023-04-24T02:44:38;11.10;68.90
78886;DHT22;68269;52.514;5.722;2023-04-24T02:47:07;11.10;69.00
78886;DHT22;68269;52.514;5.722;2023-04-24T02:49:36;11.10;69.00
78886;DHT22;68269;52.514;5.722;2023-04-24T02:52:05;11.10;69.00
78886;DHT22;68269;52.514;5.722;2023-04-24T02:54:35;11.00;69.00
78886;DHT22;68269;52.514;5.722;2023-04-24T02:57:07;11.00;69.00
78886;DHT22;68269;52.514;5.722;2023-04-24T02:59:38;11.00;69.10
78886;DHT22;68269;52.514;5.722;2023-04-24T03:02:08;10.90;69.10
78886;DHT22;68269;52.514;5.722;2023-04-24T03:04:37;10.90;69.00
78886;DHT22;68269;52.514;5.722;2023-04-24T03:07:06;10.80;69.00
78886;DHT22;68269;52.514;5.722;2023-04-24T03:09:37;10.80;69.00
78886;DHT22;68269;52.514;5.722;2023-04-24T03:12:09;10.80;69.00
78886;DHT22;68269;52.514;5.722;2023-04-24T03:14:39;10.70;69.00
78886;DHT22;68269;52.514;5.722;2023-04-24T03:17:08;10.70;69.00
78886;DHT22;68269;52.514;5.722;2023-04-24T03:19:38;10.70;69.00
78886;DHT22;68269;52.514;5.722;2023-04-24T03:22:10;10.70;69.00
78886;DHT22;68269;52.514;5.722;2023-04-24T03:24:40;10.70;69.00
78886;DHT22;68269;52.514;5.722;2023-04-24T03:27:12;10.60;69.00
78886;DHT22;68269;52.514;5.722;2023-04-24T03:29:53;10.60;69.00
78886;DHT22;68269;52.514;5.722;2023-04-24T03:32:27;10.50;69.00
78886;DHT22;68269;52.514;5.722;2023-04-24T03:34:58;10.50;69.10
78886;DHT22;68269;52.514;5.722;2023-04-24T03:37:27;10.50;69.10
78886;DHT22;68269;52.514;5.722;2023-04-24T03:40:13;10.50;69.00
78886;DHT22;68269;52.514;5.722;2023-04-24T03:42:45;10.40;69.00
78886;DHT22;68269;52.514;5.722;2023-04-24T03:45:14;10.40;69.10
78886;DHT22;68269;52.514;5.722;2023-04-24T03:47:47;10.40;69.10
78886;DHT22;68269;52.514;5.722;2023-04-24T03:50:17;10.40;69.10
78886;DHT22;68269;52.514;5.722;2023-04-24T03:52:47;10.40;69.10
78886;DHT22;68269;52.514;5.722;2023-04-24T03:55:26;10.50;69.20
78886;DHT22;68269;52.514;5.722;2023-04-24T03:57:58;10.50;69.20
78886;DHT22;68269;52.514;5.722;2023-04-24T04:00:28;10.40;69.20
78886;DHT22;68269;52.514;5.722;2023-04-24T04:03:19;10.50;69.20
78886;DHT22;68269;52.514;5.722;2023-04-24T04:05:48;10.50;69.10
78886;DHT22;68269;52.514;5.722;2023-04-24T04:08:18;10.50;69.10
78886;DHT22;68269;52.514;5.722;2023-04-24T04:10:48;10.50;69.10
78886;DHT22;68269;52.514;5.722;2023-04-24T04:13:20;10.60;69.10
78886;DHT22;68269;52.514;5.722;2023-04-24T04:15:49;10.60;69.20
78886;DHT22;68269;52.514;5.722;2023-04-24T04:18:19;10.60;69.20
78886;DHT22;68269;52.514;5.722;2023-04-24T04:20:48;10.60;69.20
78886;DHT22;68269;52.514;5.722;2023-04-24T04:23:18;10.60;69.20
78886;DHT22;68269;52.514;5.722;2023-04-24T04:26:04;10.70;69.20
78886;DHT22;68269;52.514;5.722;2023-04-24T04:29:03;10.70;69.30
78886;DHT22;68269;52.514;5.722;2023-04-24T04:31:35;10.70;69.30
78886;DHT22;68269;52.514;5.722;2023-04-24T04:34:08;10.70;69.30
78886;DHT22;68269;52.514;5.722;2023-04-24T04:36:39;10.70;69.30
78886;DHT22;68269;52.514;5.722;2023-04-24T04:39:23;10.70;69.30
78886;DHT22;68269;52.514;5.722;2023-04-24T04:42:07;10.60;69.30
78886;DHT22;68269;52.514;5.722;2023-04-24T04:44:43;10.60;69.40
78886;DHT22;68269;52.514;5.722;2023-04-24T04:47:21;10.70;69.40
78886;DHT22;68269;52.514;5.722;2023-04-24T04:49:51;10.70;69.40
78886;DHT22;68269;52.514;5.722;2023-04-24T04:52:24;10.70;69.40
78886;DHT22;68269;52.514;5.722;2023-04-24T04:55:03;10.70;69.40
78886;DHT22;68269;52.514;5.722;2023-04-24T04:57:58;10.70;69.40
78886;DHT22;68269;52.514;5.722;2023-04-24T05:00:31;10.70;69.40
78886;DHT22;68269;52.514;5.722;2023-04-24T05:03:06;10.70;69.50
78886;DHT22;68269;52.514;5.722;2023-04-24T05:05:35;10.70;69.50
78886;DHT22;68269;52.514;5.722;2023-04-24T05:08:08;10.60;69.50
78886;DHT22;68269;52.514;5.722;2023-04-24T05:10:37;10.70;69.50
78886;DHT22;68269;52.514;5.722;2023-04-24T05:13:07;10.70;69.50
78886;DHT22;68269;52.514;5.722;2023-04-24T05:15:39;10.60;69.50
78886;DHT22;68269;52.514;5.722;2023-04-24T05:18:09;10.60;69.60
78886;DHT22;68269;52.514;5.722;2023-04-24T05:20:38;10.70;69.60
78886;DHT22;68269;52.514;5.722;2023-04-24T05:23:09;10.70;69.60
78886;DHT22;68269;52.514;5.722;2023-04-24T05:25:41;10.70;69.60
78886;DHT22;68269;52.514;5.722;2023-04-24T05:28:12;10.80;69.60
78886;DHT22;68269;52.514;5.722;2023-04-24T05:30:47;10.80;69.60
78886;DHT22;68269;52.514;5.722;2023-04-24T05:33:17;10.80;69.70
78886;DHT22;68269;52.514;5.722;2023-04-24T05:35:46;10.80;69.70
78886;DHT22;68269;52.514;5.722;2023-04-24T05:38:15;10.80;69.60
78886;DHT22;68269;52.514;5.722;2023-04-24T05:40:48;10.80;69.70
78886;DHT22;68269;52.514;5.722;2023-04-24T05:43:17;10.80;69.70
78886;DHT22;68269;52.514;5.722;2023-04-24T05:45:49;10.80;69.70
78886;DHT22;68269;52.514;5.722;2023-04-24T05:48:19;10.90;69.70
78886;DHT22;68269;52.514;5.722;2023-04-24T05:50:49;10.90;69.70
78886;DHT22;68269;52.514;5.722;2023-04-24T05:53:18;10.90;69.70
78886;DHT22;68269;52.514;5.722;2023-04-24T05:55:48;10.90;69.70
78886;DHT22;68269;52.514;5.722;2023-04-24T05:58:17;10.90;69.70
78886;DHT22;68269;52.514;5.722;2023-04-24T06:00:50;10.90;69.70
78886;DHT22;68269;52.514;5.722;2023-04-24T06:03:19;10.90;69.80
78886;DHT22;68269;52.514;5.722;2023-04-24T06:05:50;11.00;69.80
78886;DHT22;68269;52.514;5.722;2023-04-24T06:08:21;11.00;69.80
78886;DHT22;68269;52.514;5.722;2023-04-24T06:10:50;11.00;69.80
78886;DHT22;68269;52.514;5.722;2023-04-24T06:13:21;11.00;69.90
78886;DHT22;68269;52.514;5.722;2023-04-24T06:16:11;11.00;69.90
78886;DHT22;68269;52.514;5.722;2023-04-24T06:18:45;11.00;69.90
78886;DHT22;68269;52.514;5.722;2023-04-24T06:21:16;11.00;69.80
78886;DHT22;68269;52.514;5.722;2023-04-24T06:23:46;11.00;69.90
78886;DHT22;68269;52.514;5.722;2023-04-24T06:26:16;11.00;69.90
78886;DHT22;68269;52.514;5.722;2023-04-24T06:28:46;11.00;69.90
78886;DHT22;68269;52.514;5.722;2023-04-24T06:31:18;11.00;69.90
78886;DHT22;68269;52.514;5.722;2023-04-24T06:33:48;11.10;69.90
78886;DHT22;68269;52.514;5.722;2023-04-24T06:36:17;11.10;70.00
78886;DHT22;68269;52.514;5.722;2023-04-24T06:38:47;11.10;69.90
78886;DHT22;68269;52.514;5.722;2023-04-24T06:41:16;11.10;70.00
78886;DHT22;68269;52.514;5.722;2023-04-24T06:43:45;11.00;70.00
78886;DHT22;68269;52.514;5.722;2023-04-24T06:46:17;11.00;70.00
78886;DHT22;68269;52.514;5.722;2023-04-24T06:48:48;10.90;70.10
78886;DHT22;68269;52.514;5.722;2023-04-24T06:51:17;10.90;70.00
78886;DHT22;68269;52.514;5.722;2023-04-24T06:53:47;10.80;70.10
78886;DHT22;68269;52.514;5.722;2023-04-24T06:56:16;10.80;70.10
78886;DHT22;68269;52.514;5.722;2023-04-24T06:58:45;10.80;70.10
78886;DHT22;68269;52.514;5.722;2023-04-24T07:01:17;10.80;70.10
78886;DHT22;68269;52.514;5.722;2023-04-24T07:03:46;10.80;70.10
78886;DHT22;68269;52.514;5.722;2023-04-24T07:06:16;10.80;70.10
78886;DHT22;68269;52.514;5.722;2023-04-24T07:08:47;10.70;70.10
78886;DHT22;68269;52.514;5.722;2023-04-24T07:11:17;10.70;70.20
78886;DHT22;68269;52.514;5.722;2023-04-24T07:13:46;10.70;70.20
78886;DHT22;68269;52.514;5.722;2023-04-24T07:16:18;10.70;70.10
78886;DHT22;68269;52.514;5.722;2023-04-24T07:18:47;10.60;70.20
78886;DHT22;68269;52.514;5.722;2023-04-24T07:21:16;10.60;70.20
78886;DHT22;68269;52.514;5.722;2023-04-24T07:23:45;10.60;70.20
78886;DHT22;68269;52.514;5.722;2023-04-24T07:26:15;10.60;70.20
78886;DHT22;68269;52.514;5.722;2023-04-24T07:28:44;10.50;70.20
78886;DHT22;68269;52.514;5.722;2023-04-24T07:31:13;10.50;70.10
78886;DHT22;68269;52.514;5.722;2023-04-24T07:33:45;10.50;70.20
78886;DHT22;68269;52.514;5.722;2023-04-24T07:36:14;10.50;70.10
78886;DHT22;68269;52.514;5.722;2023-04-24T07:38:45;10.50;70.10
78886;DHT22;68269;52.514;5.722;2023-04-24T07:41:14;10.50;70.10
78886;DHT22;68269;52.514;5.722;2023-04-24T07:43:44;10.50;70.10
78886;DHT22;68269;52.514;5.722;2023-04-24T07:46:14;10.50;70.10
78886;DHT22;68269;52.514;5.722;2023-04-24T07:48:46;10.50;70.00
78886;DHT22;68269;52.514;5.722;2023-04-24T07:51:15;10.50;70.00
78886;DHT22;68269;52.514;5.722;2023-04-24T07:53:44;10.50;69.90
78886;DHT22;68269;52.514;5.722;2023-04-24T07:56:13;10.50;69.90
78886;DHT22;68269;52.514;5.722;2023-04-24T07:58:43;10.50;69.90
78886;DHT22;68269;52.514;5.722;2023-04-24T08:01:12;10.50;69.80
78886;DHT22;68269;52.514;5.722;2023-04-24T08:03:41;10.50;69.70
78886;DHT22;68269;52.514;5.722;2023-04-24T08:06:13;10.50;69.80
78886;DHT22;68269;52.514;5.722;2023-04-24T08:08:43;10.50;69.80
78886;DHT22;68269;52.514;5.722;2023-04-24T08:11:12;10.50;69.70
78886;DHT22;68269;52.514;5.722;2023-04-24T08:13:41;10.50;69.70
78886;DHT22;68269;52.514;5.722;2023-04-24T08:16:11;10.60;69.70
78886;DHT22;68269;52.514;5.722;2023-04-24T08:18:40;10.60;69.60
78886;DHT22;68269;52.514;5.722;2023-04-24T08:21:10;10.60;69.60
78886;DHT22;68269;52.514;5.722;2023-04-24T08:23:46;10.60;69.60
78886;DHT22;68269;52.514;5.722;2023-04-24T08:26:16;10.50;69.60
78886;DHT22;68269;52.514;5.722;2023-04-24T08:28:45;10.50;69.60
78886;DHT22;68269;52.514;5.722;2023-04-24T08:31:15;10.60;69.60
78886;DHT22;68269;52.514;5.722;2023-04-24T08:33:44;10.60;69.60
78886;DHT22;68269;52.514;5.722;2023-04-24T08:36:13;10.60;69.60
78886;DHT22;68269;52.514;5.722;2023-04-24T08:38:45;10.60;69.60
78886;DHT22;68269;52.514;5.722;2023-04-24T08:41:15;10.60;69.60
78886;DHT22;68269;52.514;5.722;2023-04-24T08:43:46;10.60;69.60
78886;DHT22;68269;52.514;5.722;2023-04-24T08:46:16;10.60;69.60
78886;DHT22;68269;52.514;5.722;2023-04-24T08:48:48;10.50;69.60
78886;DHT22;68269;52.514;5.722;2023-04-24T08:51:18;10.50;69.60
78886;DHT22;68269;52.514;5.722;2023-04-24T08:53:52;10.50;69.60
78886;DHT22;68269;52.514;5.722;2023-04-24T08:56:23;10.50;69.50
78886;DHT22;68269;52.514;5.722;2023-04-24T08:58:53;10.50;69.40
78886;DHT22;68269;52.514;5.722;2023-04-24T09:01:24;10.60;69.40
78886;DHT22;68269;52.514;5.722;2023-04-24T09:03:55;10.60;69.40
78886;DHT22;68269;52.514;5.722;2023-04-24T09:06:25;10.60;69.30
78886;DHT22;68269;52.514;5.722;2023-04-24T09:09:00;10.60;69.30
78886;DHT22;68269;52.514;5.722;2023-04-24T09:11:30;10.50;69.40
78886;DHT22;68269;52.514;5.722;2023-04-24T09:14:00;10.50;69.40
78886;DHT22;68269;52.514;5.722;2023-04-24T09:16:30;10.40;69.40
78886;DHT22;68269;52.514;5.722;2023-04-24T09:19:00;10.40;69.40
78886;DHT22;68269;52.514;5.722;2023-04-24T09:21:32;10.40;69.40
78886;DHT22;68269;52.514;5.722;2023-04-24T09:24:07;10.40;69.40
78886;DHT22;68269;52.514;5.722;2023-04-24T09:26:44;10.50;69.40
78886;DHT22;68269;52.514;5.722;2023-04-24T09:29:17;10.50;69.30
78886;DHT22;68269;52.514;5.722;2023-04-24T09:31:46;10.60;69.30
78886;DHT22;68269;52.514;5.722;2023-04-24T09:34:21;10.60;69.20
78886;DHT22;68269;52.514;5.722;2023-04-24T09:36:52;10.50;69.20
78886;DHT22;68269;52.514;5.722;2023-04-24T09:39:24;10.50;69.20
78886;DHT22;68269;52.514;5.722;2023-04-24T09:41:55;10.60;69.20
78886;DHT22;68269;52.514;5.722;2023-04-24T09:44:27;10.60;69.10
78886;DHT22;68269;52.514;5.722;2023-04-24T09:46:58;10.60;69.10
78886;DHT22;68269;52.514;5.722;2023-04-24T09:49:29;10.70;69.10
78886;DHT22;68269;52.514;5.722;2023-04-24T09:52:03;10.70;69.00
78886;DHT22;68269;52.514;5.722;2023-04-24T09:54:35;10.70;68.90
78886;DHT22;68269;52.514;5.722;2023-04-24T09:57:07;10.80;68.90
78886;DHT22;68269;52.514;5.722;2023-04-24T09:59:42;10.80;68.90
78886;DHT22;68269;52.514;5.722;2023-04-24T10:02:17;10.90;68.70
78886;DHT22;68269;52.514;5.722;2023-04-24T10:04:54;10.90;68.60
78886;DHT22;68269;52.514;5.722;2023-04-24T10:07:26;11.00;68.50
78886;DHT22;68269;52.514;5.722;2023-04-24T10:09:58;11.10;68.30
78886;DHT22;68269;52.514;5.722;2023-04-24T10:12:28;11.10;68.30
78886;DHT22;68269;52.514;5.722;2023-04-24T10:14:58;11.10;68.30
78886;DHT22;68269;52.514;5.722;2023-04-24T10:17:28;11.10;68.30
78886;DHT22;68269;52.514;5.722;2023-04-24T10:19:58;11.10;68.20
78886;DHT22;68269;52.514;5.722;2023-04-24T10:22:29;11.10;68.20
78886;DHT22;68269;52.514;5.722;2023-04-24T10:25:03;11.00;68.20
78886;DHT22;68269;52.514;5.722;2023-04-24T10:27:34;11.10;68.20
78886;DHT22;68269;52.514;5.722;2023-04-24T10:30:04;11.10;68.10
78886;DHT22;68269;52.514;5.722;2023-04-24T10:32:35;11.10;68.00
78886;DHT22;68269;52.514;5.722;2023-04-24T10:35:06;11.20;67.90
78886;DHT22;68269;52.514;5.722;2023-04-24T10:37:38;11.10;67.70
78886;DHT22;68269;52.514;5.722;2023-04-24T10:40:12;11.10;67.60
78886;DHT22;68269;52.514;5.722;2023-04-24T10:42:48;11.10;67.50
78886;DHT22;68269;52.514;5.722;2023-04-24T10:45:17;11.20;67.50
78886;DHT22;68269;52.514;5.722;2023-04-24T10:47:57;11.30;67.30
78886;DHT22;68269;52.514;5.722;2023-04-24T10:50:28;11.40;67.20
78886;DHT22;68269;52.514;5.722;2023-04-24T10:53:06;11.40;67.20
78886;DHT22;68269;52.514;5.722;2023-04-24T10:55:49;11.40;67.00
78886;DHT22;68269;52.514;5.722;2023-04-24T10:58:22;11.50;66.90
78886;DHT22;68269;52.514;5.722;2023-04-24T11:00:56;11.40;66.90
78886;DHT22;68269;52.514;5.722;2023-04-24T11:03:27;11.40;66.80
78886;DHT22;68269;52.514;5.722;2023-04-24T11:05:58;11.30;66.90
78886;DHT22;68269;52.514;5.722;2023-04-24T11:08:30;11.20;66.90
78886;DHT22;68269;52.514;5.722;2023-04-24T11:11:06;11.10;66.90
78886;DHT22;68269;52.514;5.722;2023-04-24T11:14:01;11.10;66.90
78886;DHT22;68269;52.514;5.722;2023-04-24T11:16:31;11.00;66.80
78886;DHT22;68269;52.514;5.722;2023-04-24T11:19:04;10.90;66.90
78886;DHT22;68269;52.514;5.722;2023-04-24T11:21:41;10.90;66.80
78886;DHT22;68269;52.514;5.722;2023-04-24T11:24:26;10.90;66.60
78886;DHT22;68269;52.514;5.722;2023-04-24T11:27:05;11.00;66.50
78886;DHT22;68269;52.514;5.722;2023-04-24T11:29:42;11.00;66.50
78886;DHT22;68269;52.514;5.722;2023-04-24T11:32:17;11.10;66.30
78886;DHT22;68269;52.514;5.722;2023-04-24T11:34:47;11.00;66.40
78886;DHT22;68269;52.514;5.722;2023-04-24T11:37:17;10.90;66.50
78886;DHT22;68269;52.514;5.722;2023-04-24T11:39:47;10.80;66.60
78886;DHT22;68269;52.514;5.722;2023-04-24T11:42:22;10.80;66.70
78886;DHT22;68269;52.514;5.722;2023-04-24T11:44:53;10.90;66.70
78886;DHT22;68269;52.514;5.722;2023-04-24T11:47:31;11.00;66.60
78886;DHT22;68269;52.514;5.722;2023-04-24T11:50:03;11.10;66.50
78886;DHT22;68269;52.514;5.722;2023-04-24T11:52:36;11.10;66.40
78886;DHT22;68269;52.514;5.722;2023-04-24T11:55:07;11.20;66.30
78886;DHT22;68269;52.514;5.722;2023-04-24T11:57:42;11.20;66.30
78886;DHT22;68269;52.514;5.722;2023-04-24T12:00:16;11.20;66.40
78886;DHT22;68269;52.514;5.722;2023-04-24T12:02:47;11.10;66.40
78886;DHT22;68269;52.514;5.722;2023-04-24T12:05:19;11.00;66.50
78886;DHT22;68269;52.514;5.722;2023-04-24T12:07:49;10.90;66.60
78886;DHT22;68269;52.514;5.722;2023-04-24T12:10:20;10.80;66.60
78886;DHT22;68269;52.514;5.722;2023-04-24T12:12:53;10.70;66.70
78886;DHT22;68269;52.514;5.722;2023-04-24T12:15:23;10.70;66.80
78886;DHT22;68269;52.514;5.722;2023-04-24T12:17:53;10.70;66.70
78886;DHT22;68269;52.514;5.722;2023-04-24T12:20:28;10.80;66.60
78886;DHT22;68269;52.514;5.722;2023-04-24T12:22:59;11.00;66.50
78886;DHT22;68269;52.514;5.722;2023-04-24T12:25:29;11.10;66.30
78886;DHT22;68269;52.514;5.722;2023-04-24T12:28:12;11.50;65.70
78886;DHT22;68269;52.514;5.722;2023-04-24T12:30:42;11.90;65.20
78886;DHT22;68269;52.514;5.722;2023-04-24T12:33:17;11.90;65.20
78886;DHT22;68269;52.514;5.722;2023-04-24T12:35:50;11.90;65.30
78886;DHT22;68269;52.514;5.722;2023-04-24T12:38:22;11.60;65.50
78886;DHT22;68269;52.514;5.722;2023-04-24T12:41:01;11.40;65.70
78886;DHT22;68269;52.514;5.722;2023-04-24T12:43:34;11.20;66.00
78886;DHT22;68269;52.514;5.722;2023-04-24T12:46:04;11.10;66.20
78886;DHT22;68269;52.514;5.722;2023-04-24T12:48:33;11.00;66.30
78886;DHT22;68269;52.514;5.722;2023-04-24T12:51:03;11.00;66.40
78886;DHT22;68269;52.514;5.722;2023-04-24T12:53:32;11.00;66.40
78886;DHT22;68269;52.514;5.722;2023-04-24T12:56:02;11.00;66.30
78886;DHT22;68269;52.514;5.722;2023-04-24T12:58:34;11.00;66.30
78886;DHT22;68269;52.514;5.722;2023-04-24T13:01:03;11.00;66.20
78886;DHT22;68269;52.514;5.722;2023-04-24T13:03:32;11.00;66.20
78886;DHT22;68269;52.514;5.722;2023-04-24T13:06:02;10.90;66.20
78886;DHT22;68269;52.514;5.722;2023-04-24T13:08:31;10.80;66.20
78886;DHT22;68269;52.514;5.722;2023-04-24T13:11:00;10.80;66.20
78886;DHT22;68269;52.514;5.722;2023-04-24T13:13:29;10.80;66.10
78886;DHT22;68269;52.514;5.722;2023-04-24T13:16:01;10.80;66.00
78886;DHT22;68269;52.514;5.722;2023-04-24T13:18:31;10.90;65.70
78886;DHT22;68269;52.514;5.722;2023-04-24T13:21:00;11.00;65.60
78886;DHT22;68269;52.514;5.722;2023-04-24T13:23:29;11.00;65.50
78886;DHT22;68269;52.514;5.722;2023-04-24T13:25:59;11.00;65.40
78886;DHT22;68269;52.514;5.722;2023-04-24T13:28:28;11.10;65.30
78886;DHT22;68269;52.514;5.722;2023-04-24T13:30:57;11.10;65.10
78886;DHT22;68269;52.514;5.722;2023-04-24T13:33:29;11.10;65.00
78886;DHT22;68269;52.514;5.722;2023-04-24T13:35:59;11.20;65.00
78886;DHT22;68269;52.514;5.722;2023-04-24T13:38:28;11.40;64.80
78886;DHT22;68269;52.514;5.722;2023-04-24T13:40:57;11.40;64.70
78886;DHT22;68269;52.514;5.722;2023-04-24T13:43:27;11.50;64.70
78886;DHT22;68269;52.514;5.722;2023-04-24T13:45:56;11.50;64.60
78886;DHT22;68269;52.514;5.722;2023-04-24T13:48:30;11.50;64.50
78886;DHT22;68269;52.514;5.722;2023-04-24T13:50:59;11.50;64.50
78886;DHT22;68269;52.514;5.722;2023-04-24T13:53:29;11.50;64.60
78886;DHT22;68269;52.514;5.722;2023-04-24T13:55:59;11.40;64.70
78886;DHT22;68269;52.514;5.722;2023-04-24T13:58:28;11.20;64.80
78886;DHT22;68269;52.514;5.722;2023-04-24T14:00:58;11.10;65.00
78886;DHT22;68269;52.514;5.722;2023-04-24T14:03:30;11.00;65.10
78886;DHT22;68269;52.514;5.722;2023-04-24T14:05:59;10.90;65.10
78886;DHT22;68269;52.514;5.722;2023-04-24T14:08:29;10.90;65.10
78886;DHT22;68269;52.514;5.722;2023-04-24T14:10:58;10.90;65.00
78886;DHT22;68269;52.514;5.722;2023-04-24T14:13:28;10.90;65.00
78886;DHT22;68269;52.514;5.722;2023-04-24T14:15:58;10.90;65.00
78886;DHT22;68269;52.514;5.722;2023-04-24T14:18:30;10.90;65.00
78886;DHT22;68269;52.514;5.722;2023-04-24T14:20:59;10.90;64.90
78886;DHT22;68269;52.514;5.722;2023-04-24T14:23:29;10.90;64.80
78886;DHT22;68269;52.514;5.722;2023-04-24T14:25:58;10.90;64.80
78886;DHT22;68269;52.514;5.722;2023-04-24T14:28:28;10.80;64.80
78886;DHT22;68269;52.514;5.722;2023-04-24T14:30:57;10.70;64.90
78886;DHT22;68269;52.514;5.722;2023-04-24T14:33:26;10.80;64.90
78886;DHT22;68269;52.514;5.722;2023-04-24T14:35:58;10.90;64.80
78886;DHT22;68269;52.514;5.722;2023-04-24T14:38:29;10.90;64.70
78886;DHT22;68269;52.514;5.722;2023-04-24T14:40:58;10.90;64.70
78886;DHT22;68269;52.514;5.722;2023-04-24T14:43:27;10.90;64.70
78886;DHT22;68269;52.514;5.722;2023-04-24T14:45:56;10.80;64.80
78886;DHT22;68269;52.514;5.722;2023-04-24T14:48:26;10.60;65.00
78886;DHT22;68269;52.514;5.722;2023-04-24T14:50:58;10.50;65.20
78886;DHT22;68269;52.514;5.722;2023-04-24T14:53:28;10.50;65.20
78886;DHT22;68269;52.514;5.722;2023-04-24T14:55:57;10.60;65.10
78886;DHT22;68269;52.514;5.722;2023-04-24T14:58:26;10.90;64.70
78886;DHT22;68269;52.514;5.722;2023-04-24T15:00:56;11.40;64.20
78886;DHT22;68269;52.514;5.722;2023-04-24T15:03:25;11.90;63.50
78886;DHT22;68269;52.514;5.722;2023-04-24T15:05:58;12.00;63.20
78886;DHT22;68269;52.514;5.722;2023-04-24T15:08:27;12.30;63.10
78886;DHT22;68269;52.514;5.722;2023-04-24T15:10:56;12.80;62.70
78886;DHT22;68269;52.514;5.722;2023-04-24T15:13:26;13.00;62.30
78886;DHT22;68269;52.514;5.722;2023-04-24T15:15:55;13.10;62.30
78886;DHT22;68269;52.514;5.722;2023-04-24T15:18:24;13.50;62.00
78886;DHT22;68269;52.514;5.722;2023-04-24T15:20:57;13.70;61.80
78886;DHT22;68269;52.514;5.722;2023-04-24T15:23:27;14.10;61.50
78886;DHT22;68269;52.514;5.722;2023-04-24T15:25:56;14.20;61.30
78886;DHT22;68269;52.514;5.722;2023-04-24T15:28:26;14.00;61.60
78886;DHT22;68269;52.514;5.722;2023-04-24T15:30:55;13.80;61.90
78886;DHT22;68269;52.514;5.722;2023-04-24T15:33:24;13.60;62.10
78886;DHT22;68269;52.514;5.722;2023-04-24T15:35:54;13.50;62.10
78886;DHT22;68269;52.514;5.722;2023-04-24T15:38:26;13.10;62.30
78886;DHT22;68269;52.514;5.722;2023-04-24T15:40:55;12.90;62.50
78886;DHT22;68269;52.514;5.722;2023-04-24T15:43:25;12.70;62.80
78886;DHT22;68269;52.514;5.722;2023-04-24T15:45:56;12.60;62.70
78886;DHT22;68269;52.514;5.722;2023-04-24T15:48:25;12.90;62.30
78886;DHT22;68269;52.514;5.722;2023-04-24T15:50:56;13.20;61.70
78886;DHT22;68269;52.514;5.722;2023-04-24T15:53:29;13.10;61.80
78886;DHT22;68269;52.514;5.722;2023-04-24T15:55:59;13.10;61.80